Check out our new PWSWeather beta!
PWSweather.com
Personal Weather Stations
Station Observations
GIRWX1
Presovsky Kraj, GiraltovceSK

Presovsky KrajGiraltovceSK

Lat: 49.118, Lon: 21.52

Elevation: 630

Station Type: wh1080

http://www.meteogiraltovce.wz.cz/

High Low Average
Temperature 48.4°F9.1°C 20.1°F-6.6°C 36.2°F2.3°C
Dew Point 32.7°F0.4°C 12.9°F-10.6°C 24.7°F-4.1°C
Winds 10.5 mph 16.9 kmh Calm Calm 4.0 mph SSE6.4 kmh SSE
Wind Gusts 17.4 mph28.0 kmh -- 6.0 mph9.7 kmh
Humidity 80% 44% 64%
Pressure 30.33 in1027.1 mb 30.03 in1016.9 mb -
Precipitation 0.00 in0.0 mm - -
Hour Temp Dew Point Humidity Winds Wind Gusts Pressure Precip Precip Rate Daily Precip Total
12:00 AM 24.6°F-4.1°C 17.2°F-8.2°C 73% 0.1 mph NW0.2 kmh NW 1.6 mph2.6 kmh 30.33 in1027.1 mb 16.47 in418.3 mm 0.00 in0.0 mm 16.47 in418.3 mm
12:05 AM 24.6°F-4.1°C 17.2°F-8.2°C 73% Calm Calm -- 30.33 in1027.1 mb 16.47 in418.3 mm 0.00 in0.0 mm 16.47 in418.3 mm
12:10 AM 24.4°F-4.2°C 17.0°F-8.3°C 73% Calm Calm 0.7 mph1.1 kmh 30.33 in1027.1 mb 16.47 in418.3 mm 0.00 in0.0 mm 16.47 in418.3 mm
12:15 AM 24.3°F-4.3°C 16.9°F-8.4°C 73% Calm Calm -- 30.33 in1027.1 mb 0.00 in0.0 mm 0.00 in0.0 mm 16.47 in418.3 mm
12:20 AM 24.1°F-4.4°C 16.7°F-8.5°C 73% Calm Calm -- 30.33 in1027.1 mb 0.00 in0.0 mm 0.00 in0.0 mm 16.47 in418.3 mm
12:25 AM 23.9°F-4.5°C 16.4°F-8.7°C 73% Calm Calm -- 30.33 in1027.1 mb 0.00 in0.0 mm 0.00 in0.0 mm 16.47 in418.3 mm
12:30 AM 23.7°F-4.6°C 16.0°F-8.9°C 72% Calm Calm -- 30.33 in1027.1 mb 0.00 in0.0 mm 0.00 in0.0 mm 16.47 in418.3 mm
12:35 AM 23.6°F-4.7°C 15.9°F-8.9°C 72% 0.7 mph NNE1.1 kmh NNE 1.6 mph2.6 kmh 30.33 in1027.1 mb 0.00 in0.0 mm 0.00 in0.0 mm 16.47 in418.3 mm
12:40 AM 23.5°F-4.7°C 15.9°F-8.9°C 72% 0.7 mph N1.1 kmh N 1.6 mph2.6 kmh 30.33 in1027.1 mb 0.00 in0.0 mm 0.00 in0.0 mm 16.47 in418.3 mm
12:45 AM 23.5°F-4.7°C 15.9°F-8.9°C 72% 0.5 mph NE0.8 kmh NE 1.6 mph2.6 kmh 30.33 in1027.1 mb 0.00 in0.0 mm 0.00 in0.0 mm 16.47 in418.3 mm
12:50 AM 23.5°F-4.7°C 15.9°F-8.9°C 72% 0.3 mph NE0.5 kmh NE 1.6 mph2.6 kmh 30.33 in1027.1 mb 0.00 in0.0 mm 0.00 in0.0 mm 16.47 in418.3 mm
12:55 AM 23.4°F-4.8°C 15.7°F-9.1°C 72% 1.3 mph NE2.1 kmh NE 2.2 mph3.5 kmh 30.33 in1027.1 mb 0.00 in0.0 mm 0.00 in0.0 mm 16.47 in418.3 mm
01:00 AM 23.4°F-4.8°C 15.8°F-9.0°C 72% 1.2 mph NE1.9 kmh NE 2.2 mph3.5 kmh 30.33 in1027.1 mb 0.00 in0.0 mm 0.00 in0.0 mm 16.47 in418.3 mm
01:05 AM 23.3°F-4.8°C 16.0°F-8.9°C 73% 0.8 mph NNE1.3 kmh NNE 2.2 mph3.5 kmh 30.33 in1027.1 mb 0.00 in0.0 mm 0.00 in0.0 mm 16.47 in418.3 mm
01:10 AM 23.2°F-4.9°C 15.8°F-9.0°C 73% 1.7 mph NE2.7 kmh NE 3.1 mph5.0 kmh 30.33 in1027.1 mb 0.00 in0.0 mm 0.00 in0.0 mm 16.47 in418.3 mm
01:15 AM 23.1°F-4.9°C 15.8°F-9.0°C 73% 1.6 mph NE2.6 kmh NE 3.1 mph5.0 kmh 30.33 in1027.1 mb 0.00 in0.0 mm 0.00 in0.0 mm 16.47 in418.3 mm
01:20 AM 23.1°F-4.9°C 15.7°F-9.1°C 73% 0.7 mph NE1.1 kmh NE 1.6 mph2.6 kmh 30.33 in1027.1 mb 0.00 in0.0 mm 0.00 in0.0 mm 16.47 in418.3 mm
01:25 AM 22.9°F-5.1°C 15.5°F-9.2°C 73% 0.4 mph NE0.6 kmh NE 1.6 mph2.6 kmh 30.33 in1027.1 mb 0.00 in0.0 mm 0.00 in0.0 mm 16.47 in418.3 mm
01:30 AM 22.8°F-5.1°C 15.5°F-9.2°C 73% 1.3 mph NE2.1 kmh NE 2.2 mph3.5 kmh 30.33 in1027.1 mb 0.00 in0.0 mm 0.00 in0.0 mm 16.47 in418.3 mm
01:35 AM 22.8°F-5.1°C 15.5°F-9.2°C 73% 0.3 mph NE0.5 kmh NE 1.6 mph2.6 kmh 30.33 in1027.1 mb 0.00 in0.0 mm 0.00 in0.0 mm 16.47 in418.3 mm
01:40 AM 22.8°F-5.1°C 15.8°F-9.0°C 74% Calm Calm -- 30.33 in1027.1 mb 0.00 in0.0 mm 0.00 in0.0 mm 16.47 in418.3 mm
01:45 AM 22.8°F-5.1°C 15.8°F-9.0°C 74% Calm Calm -- 30.32 in1026.8 mb 0.00 in0.0 mm 0.00 in0.0 mm 16.47 in418.3 mm
01:50 AM 22.7°F-5.2°C 15.7°F-9.1°C 74% Calm Calm -- 30.32 in1026.8 mb 0.00 in0.0 mm 0.00 in0.0 mm 16.47 in418.3 mm
01:55 AM 22.6°F-5.2°C 15.6°F-9.1°C 74% 0.4 mph NNE0.6 kmh NNE 1.6 mph2.6 kmh 30.32 in1026.8 mb 0.00 in0.0 mm 0.00 in0.0 mm 16.47 in418.3 mm
02:00 AM 22.6°F-5.2°C 15.6°F-9.1°C 74% 0.6 mph NE1.0 kmh NE 3.1 mph5.0 kmh 30.32 in1026.8 mb 0.00 in0.0 mm 0.00 in0.0 mm 16.47 in418.3 mm
02:05 AM 22.6°F-5.2°C 15.6°F-9.1°C 74% 2.2 mph NE3.5 kmh NE 3.1 mph5.0 kmh 30.32 in1026.8 mb 0.00 in0.0 mm 0.00 in0.0 mm 16.47 in418.3 mm
02:10 AM 22.6°F-5.2°C 15.6°F-9.1°C 74% 1.3 mph NE2.1 kmh NE 3.1 mph5.0 kmh 30.32 in1026.8 mb 0.00 in0.0 mm 0.00 in0.0 mm 16.47 in418.3 mm
02:15 AM 22.6°F-5.2°C 15.6°F-9.1°C 74% 1.2 mph NE1.9 kmh NE 2.2 mph3.5 kmh 30.31 in1026.4 mb 0.00 in0.0 mm 0.00 in0.0 mm 16.47 in418.3 mm
02:20 AM 22.5°F-5.3°C 15.4°F-9.2°C 74% 1.7 mph NE2.7 kmh NE 3.1 mph5.0 kmh 30.32 in1026.8 mb 0.00 in0.0 mm 0.00 in0.0 mm 16.47 in418.3 mm
02:25 AM 22.5°F-5.3°C 15.4°F-9.2°C 74% 1.2 mph NE1.9 kmh NE 2.2 mph3.5 kmh 30.32 in1026.8 mb 0.00 in0.0 mm 0.00 in0.0 mm 16.47 in418.3 mm
02:30 AM 22.5°F-5.3°C 15.4°F-9.2°C 74% 2.1 mph NE3.4 kmh NE 3.1 mph5.0 kmh 30.32 in1026.8 mb 0.00 in0.0 mm 0.00 in0.0 mm 16.47 in418.3 mm
02:35 AM 22.3°F-5.4°C 15.3°F-9.3°C 74% 1.6 mph NE2.6 kmh NE 2.2 mph3.5 kmh 30.32 in1026.8 mb 0.00 in0.0 mm 0.00 in0.0 mm 16.47 in418.3 mm
02:40 AM 22.0°F-5.6°C 14.7°F-9.6°C 73% 1.2 mph NE1.9 kmh NE 2.2 mph3.5 kmh 30.32 in1026.8 mb 0.00 in0.0 mm 0.00 in0.0 mm 16.47 in418.3 mm
02:45 AM 21.8°F-5.7°C 14.5°F-9.7°C 73% 0.7 mph NE1.1 kmh NE 1.6 mph2.6 kmh 30.32 in1026.8 mb 0.00 in0.0 mm 0.00 in0.0 mm 16.47 in418.3 mm
02:50 AM 21.6°F-5.8°C 14.3°F-9.8°C 73% 0.1 mph NE0.2 kmh NE 1.6 mph2.6 kmh 30.32 in1026.8 mb 0.00 in0.0 mm 0.00 in0.0 mm 16.47 in418.3 mm
02:55 AM 21.5°F-5.8°C 14.2°F-9.9°C 73% 0.4 mph E0.6 kmh E 1.6 mph2.6 kmh 30.32 in1026.8 mb 0.00 in0.0 mm 0.00 in0.0 mm 16.47 in418.3 mm
03:00 AM 21.4°F-5.9°C 14.1°F-9.9°C 73% Calm Calm 0.7 mph1.1 kmh 30.32 in1026.8 mb 0.00 in0.0 mm 0.00 in0.0 mm 16.47 in418.3 mm
03:05 AM 21.4°F-5.9°C 14.1°F-9.9°C 73% Calm Calm -- 30.32 in1026.8 mb 0.00 in0.0 mm 0.00 in0.0 mm 16.47 in418.3 mm
03:10 AM 21.6°F-5.8°C 14.3°F-9.8°C 73% 0.2 mph SW0.3 kmh SW 1.6 mph2.6 kmh 30.32 in1026.8 mb 0.00 in0.0 mm 0.00 in0.0 mm 16.47 in418.3 mm
03:15 AM 21.7°F-5.7°C 14.4°F-9.8°C 73% Calm Calm -- 30.32 in1026.8 mb 0.00 in0.0 mm 0.00 in0.0 mm 16.47 in418.3 mm
03:20 AM 21.9°F-5.6°C 14.6°F-9.7°C 73% 0.1 mph W0.2 kmh W 1.6 mph2.6 kmh 30.32 in1026.8 mb 0.00 in0.0 mm 0.00 in0.0 mm 16.47 in418.3 mm
03:25 AM 22.1°F-5.5°C 14.8°F-9.6°C 73% 0.5 mph W0.8 kmh W 1.6 mph2.6 kmh 30.32 in1026.8 mb 0.00 in0.0 mm 0.00 in0.0 mm 16.47 in418.3 mm
03:30 AM 22.3°F-5.4°C 15.0°F-9.4°C 73% Calm Calm 0.7 mph1.1 kmh 30.31 in1026.4 mb 0.00 in0.0 mm 0.00 in0.0 mm 16.47 in418.3 mm
03:35 AM 22.3°F-5.4°C 15.0°F-9.4°C 73% Calm Calm 0.7 mph1.1 kmh 30.32 in1026.8 mb 0.00 in0.0 mm 0.00 in0.0 mm 16.47 in418.3 mm
03:40 AM 22.4°F-5.3°C 15.2°F-9.3°C 74% 0.3 mph NE0.5 kmh NE 2.2 mph3.5 kmh 30.32 in1026.8 mb 0.00 in0.0 mm 0.00 in0.0 mm 16.47 in418.3 mm
03:45 AM 22.5°F-5.3°C 15.5°F-9.2°C 74% 1.3 mph NNE2.1 kmh NNE 2.2 mph3.5 kmh 30.32 in1026.8 mb 0.00 in0.0 mm 0.00 in0.0 mm 16.47 in418.3 mm
03:50 AM 22.6°F-5.2°C 15.6°F-9.1°C 74% 1.6 mph NE2.6 kmh NE 3.1 mph5.0 kmh 30.32 in1026.8 mb 0.00 in0.0 mm 0.00 in0.0 mm 16.47 in418.3 mm
03:55 AM 22.5°F-5.3°C 15.5°F-9.2°C 74% 2.2 mph NE3.5 kmh NE 3.1 mph5.0 kmh 30.32 in1026.8 mb 0.00 in0.0 mm 0.00 in0.0 mm 16.47 in418.3 mm
04:00 AM 22.3°F-5.4°C 15.3°F-9.3°C 74% 2.8 mph NE4.5 kmh NE 3.8 mph6.1 kmh 30.32 in1026.8 mb 0.00 in0.0 mm 0.00 in0.0 mm 16.47 in418.3 mm
04:05 AM 22.3°F-5.4°C 15.3°F-9.3°C 74% 2.2 mph NE3.5 kmh NE 3.1 mph5.0 kmh 30.31 in1026.4 mb 0.00 in0.0 mm 0.00 in0.0 mm 16.47 in418.3 mm
04:10 AM 22.4°F-5.3°C 15.3°F-9.3°C 74% 1.7 mph NE2.7 kmh NE 3.1 mph5.0 kmh 30.31 in1026.4 mb 0.00 in0.0 mm 0.00 in0.0 mm 16.47 in418.3 mm
04:15 AM 22.4°F-5.3°C 15.3°F-9.3°C 74% 1.8 mph NE2.9 kmh NE 3.1 mph5.0 kmh 30.31 in1026.4 mb 0.00 in0.0 mm 0.00 in0.0 mm 16.47 in418.3 mm
04:20 AM 22.1°F-5.5°C 15.1°F-9.4°C 74% 0.7 mph N1.1 kmh N 2.2 mph3.5 kmh 30.31 in1026.4 mb 0.00 in0.0 mm 0.00 in0.0 mm 16.47 in418.3 mm
04:25 AM 21.8°F-5.7°C 14.8°F-9.6°C 74% 0.8 mph NE1.3 kmh NE 2.2 mph3.5 kmh 30.32 in1026.8 mb 0.00 in0.0 mm 0.00 in0.0 mm 16.47 in418.3 mm
04:30 AM 21.5°F-5.8°C 14.4°F-9.8°C 74% 1.7 mph NE2.7 kmh NE 2.2 mph3.5 kmh 30.32 in1026.8 mb 0.00 in0.0 mm 0.00 in0.0 mm 16.47 in418.3 mm
04:35 AM 21.3°F-5.9°C 14.0°F-10.0°C 73% 1.1 mph NE1.8 kmh NE 2.2 mph3.5 kmh 30.32 in1026.8 mb 0.00 in0.0 mm 0.00 in0.0 mm 16.47 in418.3 mm
04:40 AM 21.2°F-6.0°C 13.9°F-10.1°C 73% 1.1 mph NE1.8 kmh NE 2.2 mph3.5 kmh 30.32 in1026.8 mb 0.00 in0.0 mm 0.00 in0.0 mm 16.47 in418.3 mm
04:45 AM 21.2°F-6.0°C 13.9°F-10.1°C 73% 0.9 mph NE1.4 kmh NE 2.2 mph3.5 kmh 30.32 in1026.8 mb 0.00 in0.0 mm 0.00 in0.0 mm 16.47 in418.3 mm
04:50 AM 21.2°F-6.0°C 13.9°F-10.1°C 73% 1.9 mph NE3.1 kmh NE 3.1 mph5.0 kmh 30.31 in1026.4 mb 0.00 in0.0 mm 0.00 in0.0 mm 16.47 in418.3 mm
04:55 AM 21.2°F-6.0°C 13.9°F-10.1°C 73% 1.2 mph NE1.9 kmh NE 2.2 mph3.5 kmh 30.31 in1026.4 mb 0.00 in0.0 mm 0.00 in0.0 mm 16.47 in418.3 mm
05:00 AM 21.2°F-6.0°C 13.9°F-10.1°C 73% 1.3 mph NE2.1 kmh NE 2.2 mph3.5 kmh 30.32 in1026.8 mb 0.00 in0.0 mm 0.00 in0.0 mm 16.47 in418.3 mm
05:05 AM 21.0°F-6.1°C 13.7°F-10.2°C 73% 1.1 mph NNE1.8 kmh NNE 2.2 mph3.5 kmh 30.32 in1026.8 mb 0.00 in0.0 mm 0.00 in0.0 mm 16.47 in418.3 mm
05:10 AM 20.9°F-6.2°C 13.6°F-10.2°C 73% 1.6 mph NE2.6 kmh NE 2.2 mph3.5 kmh 30.31 in1026.4 mb 0.00 in0.0 mm 0.00 in0.0 mm 16.47 in418.3 mm
05:15 AM 20.7°F-6.3°C 13.5°F-10.3°C 73% 0.9 mph NE1.4 kmh NE 1.6 mph2.6 kmh 30.31 in1026.4 mb 0.00 in0.0 mm 0.00 in0.0 mm 16.47 in418.3 mm
05:20 AM 20.6°F-6.3°C 13.4°F-10.3°C 73% 0.7 mph NE1.1 kmh NE 1.6 mph2.6 kmh 30.32 in1026.8 mb 0.00 in0.0 mm 0.00 in0.0 mm 16.47 in418.3 mm
05:25 AM 20.5°F-6.4°C 13.2°F-10.4°C 73% 0.4 mph NE0.6 kmh NE 1.6 mph2.6 kmh 30.32 in1026.8 mb 0.00 in0.0 mm 0.00 in0.0 mm 16.47 in418.3 mm
05:30 AM 20.5°F-6.4°C 13.2°F-10.4°C 73% 0.7 mph NE1.1 kmh NE 1.6 mph2.6 kmh 30.32 in1026.8 mb 0.00 in0.0 mm 0.00 in0.0 mm 16.47 in418.3 mm
05:35 AM 20.6°F-6.3°C 13.3°F-10.4°C 73% 1.2 mph NE1.9 kmh NE 2.2 mph3.5 kmh 30.32 in1026.8 mb 0.00 in0.0 mm 0.00 in0.0 mm 16.47 in418.3 mm
05:40 AM 20.7°F-6.3°C 13.4°F-10.3°C 73% 0.7 mph NE1.1 kmh NE 2.2 mph3.5 kmh 30.32 in1026.8 mb 0.00 in0.0 mm 0.00 in0.0 mm 16.47 in418.3 mm
05:45 AM 20.7°F-6.3°C 13.4°F-10.3°C 73% 0.7 mph NE1.1 kmh NE 1.6 mph2.6 kmh 30.32 in1026.8 mb 0.00 in0.0 mm 0.00 in0.0 mm 16.47 in418.3 mm
05:50 AM 20.7°F-6.3°C 13.4°F-10.3°C 73% 0.3 mph NE0.5 kmh NE 1.6 mph2.6 kmh 30.32 in1026.8 mb 0.00 in0.0 mm 0.00 in0.0 mm 16.47 in418.3 mm
05:55 AM 20.8°F-6.2°C 13.6°F-10.2°C 73% 0.4 mph NE0.6 kmh NE 1.6 mph2.6 kmh 30.32 in1026.8 mb 0.00 in0.0 mm 0.00 in0.0 mm 16.47 in418.3 mm
06:00 AM 20.8°F-6.2°C 13.6°F-10.2°C 73% Calm Calm 0.7 mph1.1 kmh 30.32 in1026.8 mb 0.00 in0.0 mm 0.00 in0.0 mm 16.47 in418.3 mm
06:05 AM 20.8°F-6.2°C 13.6°F-10.2°C 73% Calm Calm -- 30.32 in1026.8 mb 0.00 in0.0 mm 0.00 in0.0 mm 16.47 in418.3 mm
06:10 AM 20.8°F-6.2°C 13.6°F-10.2°C 73% 0.2 mph NE0.3 kmh NE 2.2 mph3.5 kmh 30.32 in1026.8 mb 0.00 in0.0 mm 0.00 in0.0 mm 16.47 in418.3 mm
06:15 AM 20.8°F-6.2°C 13.6°F-10.2°C 73% 1.2 mph NE1.9 kmh NE 2.2 mph3.5 kmh 30.32 in1026.8 mb 0.00 in0.0 mm 0.00 in0.0 mm 16.47 in418.3 mm
06:20 AM 20.8°F-6.2°C 13.5°F-10.3°C 73% 0.8 mph NE1.3 kmh NE 1.6 mph2.6 kmh 30.32 in1026.8 mb 0.00 in0.0 mm 0.00 in0.0 mm 16.47 in418.3 mm
06:25 AM 20.7°F-6.3°C 13.4°F-10.3°C 73% 0.9 mph NE1.4 kmh NE 1.6 mph2.6 kmh 30.32 in1026.8 mb 0.00 in0.0 mm 0.00 in0.0 mm 16.47 in418.3 mm
06:30 AM 20.7°F-6.3°C 13.4°F-10.3°C 73% 0.6 mph 1.0 kmh 1.6 mph2.6 kmh 30.32 in1026.8 mb 0.00 in0.0 mm 0.00 in0.0 mm 16.47 in418.3 mm
06:35 AM 20.7°F-6.3°C 13.4°F-10.3°C 73% Calm Calm 0.7 mph1.1 kmh 30.32 in1026.8 mb 0.00 in0.0 mm 0.00 in0.0 mm 16.47 in418.3 mm
06:40 AM 20.6°F-6.3°C 13.3°F-10.4°C 73% Calm Calm 0.7 mph1.1 kmh 30.32 in1026.8 mb 0.00 in0.0 mm 0.00 in0.0 mm 16.47 in418.3 mm
06:45 AM 20.4°F-6.4°C 13.2°F-10.4°C 73% 0.7 mph NNE1.1 kmh NNE 2.2 mph3.5 kmh 30.32 in1026.8 mb 0.00 in0.0 mm 0.00 in0.0 mm 16.47 in418.3 mm
06:50 AM 20.3°F-6.5°C 13.1°F-10.5°C 73% 1.6 mph NE2.6 kmh NE 2.2 mph3.5 kmh 30.32 in1026.8 mb 0.00 in0.0 mm 0.00 in0.0 mm 16.47 in418.3 mm
06:55 AM 20.2°F-6.6°C 13.0°F-10.6°C 73% 1.6 mph E2.6 kmh E 2.2 mph3.5 kmh 30.32 in1026.8 mb 0.00 in0.0 mm 0.00 in0.0 mm 16.47 in418.3 mm
07:00 AM 20.1°F-6.6°C 12.9°F-10.6°C 73% 0.7 mph NE1.1 kmh NE 1.6 mph2.6 kmh 30.32 in1026.8 mb 0.00 in0.0 mm 0.00 in0.0 mm 16.47 in418.3 mm
07:05 AM 20.3°F-6.5°C 13.1°F-10.5°C 73% 0.7 mph 1.1 kmh 1.6 mph2.6 kmh 30.32 in1026.8 mb 0.00 in0.0 mm 0.00 in0.0 mm 16.47 in418.3 mm
07:10 AM 20.3°F-6.5°C 13.1°F-10.5°C 73% 0.3 mph 0.5 kmh 1.6 mph2.6 kmh 30.33 in1027.1 mb 0.00 in0.0 mm 0.00 in0.0 mm 16.47 in418.3 mm
07:15 AM 20.6°F-6.3°C 13.4°F-10.3°C 73% 0.4 mph NE0.6 kmh NE 1.6 mph2.6 kmh 30.32 in1026.8 mb 0.00 in0.0 mm 0.00 in0.0 mm 16.47 in418.3 mm
07:20 AM 21.1°F-6.1°C 14.0°F-10.0°C 73% 0.7 mph NE1.1 kmh NE 1.6 mph2.6 kmh 30.33 in1027.1 mb 0.00 in0.0 mm 0.00 in0.0 mm 16.47 in418.3 mm
07:25 AM 21.8°F-5.7°C 14.8°F-9.6°C 74% 0.7 mph NE1.1 kmh NE 1.6 mph2.6 kmh 30.33 in1027.1 mb 0.00 in0.0 mm 0.00 in0.0 mm 16.47 in418.3 mm
07:30 AM 22.5°F-5.3°C 15.8°F-9.0°C 75% 0.3 mph NE0.5 kmh NE 1.6 mph2.6 kmh 30.32 in1026.8 mb 0.00 in0.0 mm 0.00 in0.0 mm 16.47 in418.3 mm
07:35 AM 23.1°F-4.9°C 16.6°F-8.6°C 76% 0.3 mph 0.5 kmh 1.6 mph2.6 kmh 30.32 in1026.8 mb 0.00 in0.0 mm 0.00 in0.0 mm 16.47 in418.3 mm
07:40 AM 23.6°F-4.7°C 17.4°F-8.1°C 77% 0.2 mph NE0.3 kmh NE 0.7 mph1.1 kmh 30.32 in1026.8 mb 0.00 in0.0 mm 0.00 in0.0 mm 16.47 in418.3 mm
07:45 AM 24.1°F-4.4°C 18.3°F-7.6°C 78% 0.1 mph SE0.2 kmh SE 1.6 mph2.6 kmh 30.32 in1026.8 mb 0.00 in0.0 mm 0.00 in0.0 mm 16.47 in418.3 mm
07:50 AM 24.6°F-4.1°C 19.1°F-7.2°C 79% 0.1 mph SE0.2 kmh SE 0.7 mph1.1 kmh 30.32 in1026.8 mb 0.00 in0.0 mm 0.00 in0.0 mm 16.47 in418.3 mm
07:55 AM 25.1°F-3.8°C 19.8°F-6.8°C 80% 0.2 mph 0.3 kmh 0.7 mph1.1 kmh 30.32 in1026.8 mb 0.00 in0.0 mm 0.00 in0.0 mm 16.47 in418.3 mm
08:00 AM 25.5°F-3.6°C 20.2°F-6.6°C 80% 0.4 mph NE0.6 kmh NE 1.6 mph2.6 kmh 30.32 in1026.8 mb 0.00 in0.0 mm 0.00 in0.0 mm 16.47 in418.3 mm
08:05 AM 25.7°F-3.5°C 20.4°F-6.4°C 80% Calm Calm 0.7 mph1.1 kmh 30.32 in1026.8 mb 0.00 in0.0 mm 0.00 in0.0 mm 16.47 in418.3 mm
08:10 AM 25.7°F-3.5°C 20.4°F-6.4°C 80% 0.5 mph E0.8 kmh E 1.6 mph2.6 kmh 30.32 in1026.8 mb 0.00 in0.0 mm 0.00 in0.0 mm 16.47 in418.3 mm
08:15 AM 26.0°F-3.3°C 20.7°F-6.3°C 80% 0.7 mph ESE1.1 kmh ESE 1.6 mph2.6 kmh 30.32 in1026.8 mb 0.00 in0.0 mm 0.00 in0.0 mm 16.47 in418.3 mm
08:20 AM 26.6°F-3.0°C 21.3°F-5.9°C 80% 0.5 mph S0.8 kmh S 1.6 mph2.6 kmh 30.31 in1026.4 mb 0.00 in0.0 mm 0.00 in0.0 mm 16.47 in418.3 mm
08:25 AM 27.3°F-2.6°C 22.0°F-5.6°C 80% 0.8 mph SE1.3 kmh SE 2.2 mph3.5 kmh 30.31 in1026.4 mb 0.00 in0.0 mm 0.00 in0.0 mm 16.47 in418.3 mm
08:30 AM 27.7°F-2.4°C 22.4°F-5.3°C 80% 0.8 mph S1.3 kmh S 2.2 mph3.5 kmh 30.31 in1026.4 mb 0.00 in0.0 mm 0.00 in0.0 mm 16.47 in418.3 mm
08:35 AM 28.2°F-2.1°C 22.9°F-5.1°C 80% 1.5 mph S2.4 kmh S 3.1 mph5.0 kmh 30.31 in1026.4 mb 0.00 in0.0 mm 0.00 in0.0 mm 16.47 in418.3 mm
08:40 AM 28.5°F-1.9°C 23.1°F-4.9°C 80% 1.8 mph SSW2.9 kmh SSW 3.1 mph5.0 kmh 30.31 in1026.4 mb 0.00 in0.0 mm 0.00 in0.0 mm 16.47 in418.3 mm
08:45 AM 28.8°F-1.8°C 23.4°F-4.8°C 80% 1.9 mph SW3.1 kmh SW 3.1 mph5.0 kmh 30.31 in1026.4 mb 0.00 in0.0 mm 0.00 in0.0 mm 16.47 in418.3 mm
08:50 AM 29.1°F-1.6°C 23.7°F-4.6°C 80% 1.6 mph SW2.6 kmh SW 3.1 mph5.0 kmh 30.31 in1026.4 mb 0.00 in0.0 mm 0.00 in0.0 mm 16.47 in418.3 mm
08:55 AM 29.3°F-1.5°C 23.9°F-4.5°C 80% 1.9 mph SSW3.1 kmh SSW 3.1 mph5.0 kmh 30.31 in1026.4 mb 0.00 in0.0 mm 0.00 in0.0 mm 16.47 in418.3 mm
09:00 AM 29.6°F-1.3°C 24.2°F-4.3°C 80% 1.8 mph SW2.9 kmh SW 3.1 mph5.0 kmh 30.31 in1026.4 mb 0.00 in0.0 mm 0.00 in0.0 mm 16.47 in418.3 mm
09:05 AM 30.1°F-1.1°C 24.7°F-4.1°C 80% 1.6 mph SW2.6 kmh SW 2.2 mph3.5 kmh 30.31 in1026.4 mb 0.00 in0.0 mm 0.00 in0.0 mm 16.47 in418.3 mm
09:10 AM 30.6°F-0.8°C 25.1°F-3.8°C 80% 1.5 mph SSE2.4 kmh SSE 3.1 mph5.0 kmh 30.30 in1026.1 mb 0.00 in0.0 mm 0.00 in0.0 mm 16.47 in418.3 mm
09:15 AM 31.2°F-0.4°C 25.4°F-3.7°C 79% 1.7 mph S2.7 kmh S 3.1 mph5.0 kmh 30.30 in1026.1 mb 0.00 in0.0 mm 0.00 in0.0 mm 16.47 in418.3 mm
09:20 AM 31.8°F-0.1°C 25.9°F-3.4°C 78% 1.7 mph SW2.7 kmh SW 3.1 mph5.0 kmh 30.31 in1026.4 mb 0.00 in0.0 mm 0.00 in0.0 mm 16.47 in418.3 mm
09:25 AM 31.8°F-0.1°C 25.2°F-3.8°C 76% 1.9 mph S3.1 kmh S 3.1 mph5.0 kmh 30.30 in1026.1 mb 0.00 in0.0 mm 0.00 in0.0 mm 16.47 in418.3 mm
09:30 AM 32.4°F0.2°C 25.7°F-3.5°C 76% 2.3 mph SSE3.7 kmh SSE 3.8 mph6.1 kmh 30.30 in1026.1 mb 0.00 in0.0 mm 0.00 in0.0 mm 16.47 in418.3 mm
09:35 AM 33.1°F0.6°C 26.3°F-3.2°C 76% 1.9 mph SW3.1 kmh SW 3.1 mph5.0 kmh 30.30 in1026.1 mb 0.00 in0.0 mm 0.00 in0.0 mm 16.47 in418.3 mm
09:40 AM 33.3°F0.7°C 26.3°F-3.2°C 75% 1.6 mph SW2.6 kmh SW 2.2 mph3.5 kmh 30.30 in1026.1 mb 0.00 in0.0 mm 0.00 in0.0 mm 16.47 in418.3 mm
09:45 AM 33.8°F1.0°C 26.5°F-3.1°C 74% 1.5 mph SSE2.4 kmh SSE 3.1 mph5.0 kmh 30.30 in1026.1 mb 0.00 in0.0 mm 0.00 in0.0 mm 16.47 in418.3 mm
09:50 AM 34.1°F1.2°C 26.4°F-3.1°C 73% 2.1 mph SSE3.4 kmh SSE 3.1 mph5.0 kmh 30.30 in1026.1 mb 0.00 in0.0 mm 0.00 in0.0 mm 16.47 in418.3 mm
09:55 AM 35.0°F1.7°C 27.1°F-2.7°C 73% 2.1 mph SSE3.4 kmh SSE 3.1 mph5.0 kmh 30.30 in1026.1 mb 0.00 in0.0 mm 0.00 in0.0 mm 16.47 in418.3 mm
10:00 AM 35.4°F1.9°C 27.1°F-2.7°C 71% 1.5 mph SSE2.4 kmh SSE 3.1 mph5.0 kmh 30.29 in1025.7 mb 0.00 in0.0 mm 0.00 in0.0 mm 16.47 in418.3 mm
10:05 AM 36.0°F2.2°C 27.5°F-2.5°C 71% 1.6 mph SW2.6 kmh SW 2.2 mph3.5 kmh 30.29 in1025.7 mb 0.00 in0.0 mm 0.00 in0.0 mm 16.47 in418.3 mm
10:10 AM 36.6°F2.6°C 27.8°F-2.3°C 70% 1.7 mph S2.7 kmh S 3.1 mph5.0 kmh 30.29 in1025.7 mb 0.00 in0.0 mm 0.00 in0.0 mm 16.47 in418.3 mm
10:15 AM 37.2°F2.9°C 27.6°F-2.4°C 68% 1.6 mph SE2.6 kmh SE 2.2 mph3.5 kmh 30.29 in1025.7 mb 0.00 in0.0 mm 0.00 in0.0 mm 16.47 in418.3 mm
10:20 AM 37.8°F3.2°C 27.8°F-2.3°C 67% 1.6 mph SE2.6 kmh SE 2.2 mph3.5 kmh 30.28 in1025.4 mb 0.00 in0.0 mm 0.00 in0.0 mm 16.47 in418.3 mm
10:25 AM 37.8°F3.2°C 27.4°F-2.6°C 66% 1.6 mph E2.6 kmh E 2.2 mph3.5 kmh 30.28 in1025.4 mb 0.00 in0.0 mm 0.00 in0.0 mm 16.47 in418.3 mm
10:30 AM 38.7°F3.7°C 28.3°F-2.1°C 66% 0.7 mph S1.1 kmh S 1.6 mph2.6 kmh 30.28 in1025.4 mb 0.00 in0.0 mm 0.00 in0.0 mm 16.47 in418.3 mm
10:35 AM 39.4°F4.1°C 28.6°F-1.9°C 65% 2.2 mph SE3.5 kmh SE 3.1 mph5.0 kmh 30.28 in1025.4 mb 0.00 in0.0 mm 0.00 in0.0 mm 16.47 in418.3 mm
10:40 AM 39.6°F4.2°C 28.5°F-1.9°C 64% 2.2 mph S3.5 kmh S 3.1 mph5.0 kmh 30.28 in1025.4 mb 0.00 in0.0 mm 0.00 in0.0 mm 16.47 in418.3 mm
10:44 AM 39.9°F4.4°C 28.0°F-2.2°C 62% 1.6 mph W2.6 kmh W 2.2 mph3.5 kmh 30.27 in1025.1 mb 0.00 in0.0 mm 0.00 in0.0 mm 16.47 in418.3 mm
10:50 AM 40.4°F4.7°C 28.6°F-1.9°C 62% 1.5 mph S2.4 kmh S 3.8 mph6.1 kmh 30.27 in1025.1 mb 0.00 in0.0 mm 0.00 in0.0 mm 16.47 in418.3 mm
10:55 AM 41.0°F5.0°C 28.8°F-1.8°C 61% 1.8 mph S2.9 kmh S 3.8 mph6.1 kmh 30.27 in1025.1 mb 0.00 in0.0 mm 0.00 in0.0 mm 16.47 in418.3 mm
11:00 AM 40.8°F4.9°C 28.5°F-1.9°C 61% 1.1 mph SW1.8 kmh SW 3.1 mph5.0 kmh 30.27 in1025.1 mb 0.00 in0.0 mm 0.00 in0.0 mm 16.47 in418.3 mm
11:05 AM 41.0°F5.0°C 28.6°F-1.9°C 61% 1.7 mph SW2.7 kmh SW 3.1 mph5.0 kmh 30.27 in1025.1 mb 0.00 in0.0 mm 0.00 in0.0 mm 16.47 in418.3 mm
11:10 AM 42.0°F5.6°C 30.0°F-1.1°C 62% 1.8 mph SE2.9 kmh SE 3.8 mph6.1 kmh 30.26 in1024.7 mb 0.00 in0.0 mm 0.00 in0.0 mm 16.47 in418.3 mm
11:15 AM 43.1°F6.2°C 30.6°F-0.8°C 61% 1.5 mph S2.4 kmh S 3.8 mph6.1 kmh 30.25 in1024.4 mb 0.00 in0.0 mm 0.00 in0.0 mm 16.47 in418.3 mm
11:20 AM 43.7°F6.5°C 30.9°F-0.6°C 60% 1.9 mph ESE3.1 kmh ESE 3.1 mph5.0 kmh 30.25 in1024.4 mb 0.00 in0.0 mm 0.00 in0.0 mm 16.47 in418.3 mm
11:25 AM 43.8°F6.6°C 30.8°F-0.7°C 60% 1.8 mph S2.9 kmh S 3.1 mph5.0 kmh 30.24 in1024.0 mb 0.00 in0.0 mm 0.00 in0.0 mm 16.47 in418.3 mm
11:30 AM 43.8°F6.6°C 30.8°F-0.7°C 60% 1.5 mph SW2.4 kmh SW 3.1 mph5.0 kmh 30.23 in1023.7 mb 0.00 in0.0 mm 0.00 in0.0 mm 16.47 in418.3 mm
11:35 AM 44.2°F6.8°C 31.2°F-0.4°C 60% 1.3 mph WSW2.1 kmh WSW 3.8 mph6.1 kmh 30.23 in1023.7 mb 0.00 in0.0 mm 0.00 in0.0 mm 16.47 in418.3 mm
11:40 AM 44.4°F6.9°C 31.4°F-0.3°C 60% 1.9 mph SE3.1 kmh SE 3.1 mph5.0 kmh 30.23 in1023.7 mb 0.00 in0.0 mm 0.00 in0.0 mm 16.47 in418.3 mm
11:45 AM 45.3°F7.4°C 32.2°F0.1°C 60% 2.0 mph S3.2 kmh S 3.1 mph5.0 kmh 30.23 in1023.7 mb 0.00 in0.0 mm 0.00 in0.0 mm 16.47 in418.3 mm
11:50 AM 45.5°F7.5°C 31.8°F-0.1°C 59% 2.3 mph WSW3.7 kmh WSW 5.4 mph8.7 kmh 30.23 in1023.7 mb 0.00 in0.0 mm 0.00 in0.0 mm 16.47 in418.3 mm
11:55 AM 45.7°F7.6°C 31.8°F-0.1°C 58% 1.8 mph W2.9 kmh W 3.1 mph5.0 kmh 30.22 in1023.4 mb 0.00 in0.0 mm 0.00 in0.0 mm 16.47 in418.3 mm
12:00 PM 46.0°F7.8°C 30.1°F-1.1°C 53% 0.7 mph SW1.1 kmh SW 2.2 mph3.5 kmh 30.22 in1023.4 mb 0.00 in0.0 mm 0.00 in0.0 mm 16.47 in418.3 mm
12:05 PM 46.0°F7.8°C 29.9°F-1.2°C 53% 1.4 mph W2.3 kmh W 2.2 mph3.5 kmh 30.22 in1023.4 mb 0.00 in0.0 mm 0.00 in0.0 mm 16.47 in418.3 mm
12:10 PM 46.3°F7.9°C 30.1°F-1.1°C 53% 2.0 mph ENE3.2 kmh ENE 3.8 mph6.1 kmh 30.21 in1023.0 mb 0.00 in0.0 mm 0.00 in0.0 mm 16.47 in418.3 mm
12:15 PM 46.7°F8.2°C 29.9°F-1.2°C 52% 1.5 mph NE2.4 kmh NE 3.8 mph6.1 kmh 30.21 in1023.0 mb 0.00 in0.0 mm 0.00 in0.0 mm 16.47 in418.3 mm
12:20 PM 47.1°F8.4°C 30.3°F-0.9°C 52% 3.9 mph S6.3 kmh S 8.3 mph13.4 kmh 30.21 in1023.0 mb 0.00 in0.0 mm 0.00 in0.0 mm 16.47 in418.3 mm
12:25 PM 47.3°F8.5°C 29.6°F-1.3°C 50% 5.6 mph SSW9.0 kmh SSW 7.6 mph12.2 kmh 30.20 in1022.7 mb 0.00 in0.0 mm 0.00 in0.0 mm 16.47 in418.3 mm
12:30 PM 47.4°F8.6°C 29.2°F-1.6°C 49% 7.3 mph S11.7 kmh S 10.7 mph17.2 kmh 30.20 in1022.7 mb 0.00 in0.0 mm 0.00 in0.0 mm 16.47 in418.3 mm
12:35 PM 47.5°F8.6°C 29.1°F-1.6°C 49% 5.3 mph SSW8.5 kmh SSW 7.6 mph12.2 kmh 30.20 in1022.7 mb 0.00 in0.0 mm 0.00 in0.0 mm 16.47 in418.3 mm
12:40 PM 47.8°F8.8°C 29.0°F-1.7°C 48% 7.7 mph S12.4 kmh S 11.4 mph18.3 kmh 30.20 in1022.7 mb 0.00 in0.0 mm 0.00 in0.0 mm 16.47 in418.3 mm
12:45 PM 47.7°F8.7°C 28.5°F-1.9°C 47% 8.4 mph S13.5 kmh S 11.4 mph18.3 kmh 30.20 in1022.7 mb 0.00 in0.0 mm 0.00 in0.0 mm 16.47 in418.3 mm
12:50 PM 47.9°F8.8°C 29.2°F-1.6°C 48% 9.5 mph S15.3 kmh S 12.1 mph19.5 kmh 30.20 in1022.7 mb 0.00 in0.0 mm 0.00 in0.0 mm 16.47 in418.3 mm
12:55 PM 47.7°F8.7°C 27.9°F-2.3°C 46% 9.8 mph S15.8 kmh S 13.0 mph20.9 kmh 30.20 in1022.7 mb 0.00 in0.0 mm 0.00 in0.0 mm 16.47 in418.3 mm
01:00 PM 47.7°F8.7°C 27.9°F-2.3°C 46% 8.5 mph SSW13.7 kmh SSW 11.4 mph18.3 kmh 30.20 in1022.7 mb 0.00 in0.0 mm 0.00 in0.0 mm 16.47 in418.3 mm
01:05 PM 47.6°F8.7°C 27.8°F-2.3°C 46% 9.9 mph S15.9 kmh S 11.4 mph18.3 kmh 30.20 in1022.7 mb 0.00 in0.0 mm 0.00 in0.0 mm 16.47 in418.3 mm
01:10 PM 47.2°F8.4°C 27.4°F-2.6°C 46% 9.8 mph S15.8 kmh S 14.5 mph23.3 kmh 30.20 in1022.7 mb 0.00 in0.0 mm 0.00 in0.0 mm 16.47 in418.3 mm
01:15 PM 46.9°F8.3°C 27.5°F-2.5°C 47% 8.2 mph S13.2 kmh S 12.1 mph19.5 kmh 30.20 in1022.7 mb 0.00 in0.0 mm 0.00 in0.0 mm 16.47 in418.3 mm
01:20 PM 47.0°F8.3°C 28.2°F-2.1°C 48% 8.9 mph S14.3 kmh S 13.0 mph20.9 kmh 30.19 in1022.4 mb 0.00 in0.0 mm 0.00 in0.0 mm 16.47 in418.3 mm
01:25 PM 47.2°F8.4°C 28.1°F-2.2°C 47% 9.5 mph S15.3 kmh S 12.1 mph19.5 kmh 30.19 in1022.4 mb 0.00 in0.0 mm 0.00 in0.0 mm 16.47 in418.3 mm
01:30 PM 47.4°F8.6°C 28.2°F-2.1°C 47% 8.0 mph SSW12.9 kmh SSW 10.7 mph17.2 kmh 30.19 in1022.4 mb 0.00 in0.0 mm 0.00 in0.0 mm 16.47 in418.3 mm
01:35 PM 47.5°F8.6°C 28.3°F-2.1°C 47% 7.4 mph S11.9 kmh S 11.4 mph18.3 kmh 30.18 in1022.0 mb 0.00 in0.0 mm 0.00 in0.0 mm 16.47 in418.3 mm
01:40 PM 47.7°F8.7°C 28.4°F-2.0°C 47% 7.1 mph SW11.4 kmh SW 9.2 mph14.8 kmh 30.18 in1022.0 mb 0.00 in0.0 mm 0.00 in0.0 mm 16.47 in418.3 mm
01:45 PM 47.8°F8.8°C 28.3°F-2.1°C 46% 6.3 mph S10.1 kmh S 8.3 mph13.4 kmh 30.18 in1022.0 mb 0.00 in0.0 mm 0.00 in0.0 mm 16.47 in418.3 mm
01:50 PM 48.0°F8.9°C 28.4°F-2.0°C 46% 6.8 mph S10.9 kmh S 10.7 mph17.2 kmh 30.18 in1022.0 mb 0.00 in0.0 mm 0.00 in0.0 mm 16.47 in418.3 mm
01:55 PM 48.1°F8.9°C 28.3°F-2.1°C 46% 6.7 mph SW10.8 kmh SW 9.8 mph15.8 kmh 30.17 in1021.7 mb 0.00 in0.0 mm 0.00 in0.0 mm 16.47 in418.3 mm
02:00 PM 48.2°F9.0°C 27.9°F-2.3°C 45% 7.6 mph S12.2 kmh S 10.7 mph17.2 kmh 30.17 in1021.7 mb 0.00 in0.0 mm 0.00 in0.0 mm 16.47 in418.3 mm
02:05 PM 48.4°F9.1°C 28.0°F-2.2°C 45% 8.3 mph S13.4 kmh S 9.8 mph15.8 kmh 30.17 in1021.7 mb 0.00 in0.0 mm 0.00 in0.0 mm 16.47 in418.3 mm
02:10 PM 48.4°F9.1°C 27.7°F-2.4°C 44% 9.0 mph S14.5 kmh S 13.6 mph21.9 kmh 30.17 in1021.7 mb 0.00 in0.0 mm 0.00 in0.0 mm 16.47 in418.3 mm
02:15 PM 48.4°F9.1°C 27.5°F-2.5°C 44% 9.8 mph SSE15.8 kmh SSE 13.6 mph21.9 kmh 30.16 in1021.3 mb 0.00 in0.0 mm 0.00 in0.0 mm 16.47 in418.3 mm
02:20 PM 48.3°F9.1°C 27.3°F-2.6°C 44% 9.2 mph SSW14.8 kmh SSW 12.1 mph19.5 kmh 30.16 in1021.3 mb 0.00 in0.0 mm 0.00 in0.0 mm 16.47 in418.3 mm
02:25 PM 48.2°F9.0°C 27.1°F-2.7°C 44% 8.0 mph S12.9 kmh S 13.0 mph20.9 kmh 30.16 in1021.3 mb 0.00 in0.0 mm 0.00 in0.0 mm 16.47 in418.3 mm
02:30 PM 48.2°F9.0°C 27.3°F-2.6°C 44% 7.2 mph SSW11.6 kmh SSW 11.4 mph18.3 kmh 30.16 in1021.3 mb 0.00 in0.0 mm 0.00 in0.0 mm 16.47 in418.3 mm
02:35 PM 48.1°F8.9°C 27.3°F-2.6°C 44% 10.5 mph S16.9 kmh S 13.6 mph21.9 kmh 30.17 in1021.7 mb 0.00 in0.0 mm 0.00 in0.0 mm 16.47 in418.3 mm
02:40 PM 47.9°F8.8°C 27.0°F-2.8°C 44% 9.5 mph S15.3 kmh S 12.1 mph19.5 kmh 30.17 in1021.7 mb 0.00 in0.0 mm 0.00 in0.0 mm 16.47 in418.3 mm
02:45 PM 47.8°F8.8°C 27.1°F-2.7°C 44% 7.6 mph S12.2 kmh S 11.4 mph18.3 kmh 30.16 in1021.3 mb 0.00 in0.0 mm 0.00 in0.0 mm 16.47 in418.3 mm
02:50 PM 47.6°F8.7°C 27.4°F-2.6°C 45% 5.7 mph SW9.2 kmh SW 9.8 mph15.8 kmh 30.16 in1021.3 mb 0.00 in0.0 mm 0.00 in0.0 mm 16.47 in418.3 mm
02:55 PM 47.4°F8.6°C 27.2°F-2.7°C 45% 8.9 mph S14.3 kmh S 12.1 mph19.5 kmh 30.16 in1021.3 mb 0.00 in0.0 mm 0.00 in0.0 mm 16.47 in418.3 mm
03:00 PM 47.2°F8.4°C 27.6°F-2.4°C 46% 5.8 mph SE9.3 kmh SE 7.6 mph12.2 kmh 30.16 in1021.3 mb 0.00 in0.0 mm 0.00 in0.0 mm 16.47 in418.3 mm
03:05 PM 47.1°F8.4°C 27.9°F-2.3°C 47% 3.8 mph SE6.1 kmh SE 5.4 mph8.7 kmh 30.16 in1021.3 mb 0.00 in0.0 mm 0.00 in0.0 mm 16.47 in418.3 mm
03:10 PM 47.1°F8.4°C 28.2°F-2.1°C 47% 4.9 mph SSE7.9 kmh SSE 9.2 mph14.8 kmh 30.16 in1021.3 mb 0.00 in0.0 mm 0.00 in0.0 mm 16.47 in418.3 mm
03:15 PM 47.0°F8.3°C 28.7°F-1.8°C 49% 6.5 mph S10.5 kmh S 11.4 mph18.3 kmh 30.15 in1021.0 mb 0.00 in0.0 mm 0.00 in0.0 mm 16.47 in418.3 mm
03:20 PM 46.9°F8.3°C 28.7°F-1.8°C 49% 8.3 mph S13.4 kmh S 13.6 mph21.9 kmh 30.15 in1021.0 mb 0.00 in0.0 mm 0.00 in0.0 mm 16.47 in418.3 mm
03:25 PM 46.6°F8.1°C 28.7°F-1.8°C 49% 9.9 mph S15.9 kmh S 14.5 mph23.3 kmh 30.16 in1021.3 mb 0.00 in0.0 mm 0.00 in0.0 mm 16.47 in418.3 mm
03:30 PM 46.4°F8.0°C 28.8°F-1.8°C 50% 6.5 mph S10.5 kmh S 9.8 mph15.8 kmh 30.15 in1021.0 mb 0.00 in0.0 mm 0.00 in0.0 mm 16.47 in418.3 mm
03:35 PM 46.2°F7.9°C 28.6°F-1.9°C 50% 7.1 mph SSE11.4 kmh SSE 12.1 mph19.5 kmh 30.15 in1021.0 mb 0.00 in0.0 mm 0.00 in0.0 mm 16.47 in418.3 mm
03:40 PM 46.0°F7.8°C 28.5°F-1.9°C 50% 8.1 mph S13.0 kmh S 13.6 mph21.9 kmh 30.15 in1021.0 mb 0.00 in0.0 mm 0.00 in0.0 mm 16.47 in418.3 mm
03:45 PM 45.9°F7.7°C 28.4°F-2.0°C 50% 7.7 mph SSE12.4 kmh SSE 13.6 mph21.9 kmh 30.15 in1021.0 mb 0.00 in0.0 mm 0.00 in0.0 mm 16.47 in418.3 mm
03:50 PM 45.8°F7.7°C 29.6°F-1.3°C 53% 8.5 mph S13.7 kmh S 15.2 mph24.5 kmh 30.14 in1020.7 mb 0.00 in0.0 mm 0.00 in0.0 mm 16.47 in418.3 mm
03:55 PM 45.6°F7.6°C 30.9°F-0.6°C 56% 7.7 mph S12.4 kmh S 12.1 mph19.5 kmh 30.14 in1020.7 mb 0.00 in0.0 mm 0.00 in0.0 mm 16.47 in418.3 mm
04:00 PM 45.4°F7.4°C 31.2°F-0.4°C 57% 9.0 mph S14.5 kmh S 12.1 mph19.5 kmh 30.14 in1020.7 mb 0.00 in0.0 mm 0.00 in0.0 mm 16.47 in418.3 mm
04:05 PM 45.3°F7.4°C 31.4°F-0.3°C 58% 3.8 mph S6.1 kmh S 5.4 mph8.7 kmh 30.14 in1020.7 mb 0.00 in0.0 mm 0.00 in0.0 mm 16.47 in418.3 mm
04:10 PM 45.2°F7.3°C 31.8°F-0.1°C 59% 5.3 mph S8.5 kmh S 9.2 mph14.8 kmh 30.14 in1020.7 mb 0.00 in0.0 mm 0.00 in0.0 mm 16.47 in418.3 mm
04:15 PM 45.1°F7.3°C 32.0°F0.0°C 60% 6.1 mph S9.8 kmh S 10.7 mph17.2 kmh 30.14 in1020.7 mb 0.00 in0.0 mm 0.00 in0.0 mm 16.47 in418.3 mm
04:20 PM 45.0°F7.2°C 31.9°F-0.1°C 60% 5.0 mph S8.0 kmh S 8.3 mph13.4 kmh 30.14 in1020.7 mb 0.00 in0.0 mm 0.00 in0.0 mm 16.47 in418.3 mm
04:25 PM 44.9°F7.2°C 31.9°F-0.1°C 60% 5.3 mph S8.5 kmh S 8.3 mph13.4 kmh 30.14 in1020.7 mb 0.00 in0.0 mm 0.00 in0.0 mm 16.47 in418.3 mm
04:30 PM 44.8°F7.1°C 31.9°F-0.1°C 60% 6.9 mph S11.1 kmh S 13.0 mph20.9 kmh 30.14 in1020.7 mb 0.00 in0.0 mm 0.00 in0.0 mm 16.47 in418.3 mm
04:35 PM 44.8°F7.1°C 32.2°F0.1°C 61% 6.2 mph S10.0 kmh S 9.8 mph15.8 kmh 30.14 in1020.7 mb 0.00 in0.0 mm 0.00 in0.0 mm 16.47 in418.3 mm
04:40 PM 44.8°F7.1°C 32.2°F0.1°C 61% 3.6 mph S5.8 kmh S 6.0 mph9.7 kmh 30.13 in1020.3 mb 0.00 in0.0 mm 0.00 in0.0 mm 16.47 in418.3 mm
04:45 PM 44.8°F7.1°C 32.2°F0.1°C 61% 2.9 mph S4.7 kmh S 4.5 mph7.2 kmh 30.13 in1020.3 mb 0.00 in0.0 mm 0.00 in0.0 mm 16.47 in418.3 mm
04:50 PM 44.8°F7.1°C 32.2°F0.1°C 61% 3.8 mph SSW6.1 kmh SSW 9.8 mph15.8 kmh 30.13 in1020.3 mb 0.00 in0.0 mm 0.00 in0.0 mm 16.47 in418.3 mm
04:55 PM 44.8°F7.1°C 32.2°F0.1°C 61% 4.7 mph S7.6 kmh S 6.9 mph11.1 kmh 30.13 in1020.3 mb 0.00 in0.0 mm 0.00 in0.0 mm 16.47 in418.3 mm
05:00 PM 44.8°F7.1°C 32.2°F0.1°C 61% 6.4 mph S10.3 kmh S 13.0 mph20.9 kmh 30.13 in1020.3 mb 0.00 in0.0 mm 0.00 in0.0 mm 16.47 in418.3 mm
05:05 PM 44.8°F7.1°C 32.2°F0.1°C 61% 6.3 mph SSW10.1 kmh SSW 10.7 mph17.2 kmh 30.13 in1020.3 mb 0.00 in0.0 mm 0.00 in0.0 mm 16.47 in418.3 mm
05:10 PM 45.0°F7.2°C 32.3°F0.2°C 61% 5.1 mph S8.2 kmh S 8.3 mph13.4 kmh 30.13 in1020.3 mb 0.00 in0.0 mm 0.00 in0.0 mm 16.47 in418.3 mm
05:15 PM 45.0°F7.2°C 32.3°F0.2°C 61% 5.0 mph S8.0 kmh S 10.7 mph17.2 kmh 30.13 in1020.3 mb 0.00 in0.0 mm 0.00 in0.0 mm 16.47 in418.3 mm
05:20 PM 45.0°F7.2°C 32.3°F0.2°C 61% 4.7 mph S7.6 kmh S 7.6 mph12.2 kmh 30.13 in1020.3 mb 0.00 in0.0 mm 0.00 in0.0 mm 16.47 in418.3 mm
05:25 PM 45.0°F7.2°C 32.3°F0.2°C 61% 6.0 mph S9.7 kmh S 10.7 mph17.2 kmh 30.13 in1020.3 mb 0.00 in0.0 mm 0.00 in0.0 mm 16.47 in418.3 mm
05:30 PM 45.0°F7.2°C 32.7°F0.4°C 62% 4.8 mph S7.7 kmh S 9.2 mph14.8 kmh 30.13 in1020.3 mb 0.00 in0.0 mm 0.00 in0.0 mm 16.47 in418.3 mm
05:35 PM 45.0°F7.2°C 32.6°F0.3°C 62% 5.7 mph S9.2 kmh S 9.2 mph14.8 kmh 30.13 in1020.3 mb 0.00 in0.0 mm 0.00 in0.0 mm 16.47 in418.3 mm
05:40 PM 45.1°F7.3°C 32.5°F0.3°C 61% 7.4 mph S11.9 kmh S 10.7 mph17.2 kmh 30.13 in1020.3 mb 0.00 in0.0 mm 0.00 in0.0 mm 16.47 in418.3 mm
05:45 PM 45.1°F7.3°C 32.5°F0.3°C 61% 7.5 mph S12.1 kmh S 12.1 mph19.5 kmh 30.13 in1020.3 mb 0.00 in0.0 mm 0.00 in0.0 mm 16.47 in418.3 mm
05:50 PM 45.1°F7.3°C 32.4°F0.2°C 61% 5.8 mph S9.3 kmh S 10.7 mph17.2 kmh 30.12 in1020.0 mb 0.00 in0.0 mm 0.00 in0.0 mm 16.47 in418.3 mm
05:55 PM 44.9°F7.2°C 32.3°F0.2°C 61% 4.4 mph S7.1 kmh S 6.0 mph9.7 kmh 30.12 in1020.0 mb 0.00 in0.0 mm 0.00 in0.0 mm 16.47 in418.3 mm
06:00 PM 44.8°F7.1°C 32.2°F0.1°C 61% 7.0 mph SSW11.3 kmh SSW 13.0 mph20.9 kmh 30.12 in1020.0 mb 0.00 in0.0 mm 0.00 in0.0 mm 16.47 in418.3 mm
06:05 PM 44.8°F7.1°C 32.2°F0.1°C 61% 5.4 mph SSW8.7 kmh SSW 6.9 mph11.1 kmh 30.12 in1020.0 mb 0.00 in0.0 mm 0.00 in0.0 mm 16.47 in418.3 mm
06:10 PM 44.5°F6.9°C 31.9°F-0.1°C 61% 4.9 mph SW7.9 kmh SW 6.9 mph11.1 kmh 30.12 in1020.0 mb 0.00 in0.0 mm 0.00 in0.0 mm 16.47 in418.3 mm
06:15 PM 44.3°F6.8°C 31.7°F-0.2°C 61% 5.5 mph SSW8.9 kmh SSW 10.7 mph17.2 kmh 30.12 in1020.0 mb 0.00 in0.0 mm 0.00 in0.0 mm 16.47 in418.3 mm
06:20 PM 44.1°F6.7°C 31.5°F-0.3°C 61% 4.4 mph SW7.1 kmh SW 6.0 mph9.7 kmh 30.12 in1020.0 mb 0.00 in0.0 mm 0.00 in0.0 mm 16.47 in418.3 mm
06:25 PM 44.0°F6.7°C 31.4°F-0.3°C 61% 4.6 mph SW7.4 kmh SW 6.0 mph9.7 kmh 30.12 in1020.0 mb 0.00 in0.0 mm 0.00 in0.0 mm 16.47 in418.3 mm
06:30 PM 43.9°F6.6°C 31.3°F-0.4°C 61% 3.7 mph S6.0 kmh S 6.0 mph9.7 kmh 30.12 in1020.0 mb 0.00 in0.0 mm 0.00 in0.0 mm 16.47 in418.3 mm
06:35 PM 43.8°F6.6°C 31.2°F-0.4°C 61% 3.8 mph S6.1 kmh S 6.0 mph9.7 kmh 30.12 in1020.0 mb 0.00 in0.0 mm 0.00 in0.0 mm 16.47 in418.3 mm
06:40 PM 43.7°F6.5°C 31.1°F-0.5°C 61% 4.7 mph S7.6 kmh S 8.3 mph13.4 kmh 30.12 in1020.0 mb 0.00 in0.0 mm 0.00 in0.0 mm 16.47 in418.3 mm
06:45 PM 43.7°F6.5°C 31.1°F-0.5°C 61% 4.6 mph S7.4 kmh S 7.6 mph12.2 kmh 30.11 in1019.6 mb 0.00 in0.0 mm 0.00 in0.0 mm 16.47 in418.3 mm
06:50 PM 43.5°F6.4°C 31.0°F-0.6°C 61% 4.1 mph SSE6.6 kmh SSE 6.0 mph9.7 kmh 30.12 in1020.0 mb 0.00 in0.0 mm 0.00 in0.0 mm 16.47 in418.3 mm
06:55 PM 43.5°F6.4°C 30.9°F-0.6°C 61% 4.1 mph S6.6 kmh S 6.9 mph11.1 kmh 30.11 in1019.6 mb 0.00 in0.0 mm 0.00 in0.0 mm 16.47 in418.3 mm
07:00 PM 43.3°F6.3°C 30.8°F-0.7°C 61% 6.0 mph S9.7 kmh S 9.2 mph14.8 kmh 30.11 in1019.6 mb 0.00 in0.0 mm 0.00 in0.0 mm 16.47 in418.3 mm
07:05 PM 43.2°F6.2°C 30.6°F-0.8°C 61% 4.6 mph SW7.4 kmh SW 7.6 mph12.2 kmh 30.11 in1019.6 mb 0.00 in0.0 mm 0.00 in0.0 mm 16.47 in418.3 mm
07:10 PM 43.1°F6.2°C 30.6°F-0.8°C 61% 3.5 mph SW5.6 kmh SW 6.0 mph9.7 kmh 30.11 in1019.6 mb 0.00 in0.0 mm 0.00 in0.0 mm 16.47 in418.3 mm
07:15 PM 43.0°F6.1°C 30.5°F-0.8°C 61% 3.6 mph SW5.8 kmh SW 5.4 mph8.7 kmh 30.10 in1019.3 mb 0.00 in0.0 mm 0.00 in0.0 mm 16.47 in418.3 mm
07:20 PM 42.8°F6.0°C 30.3°F-0.9°C 61% 3.8 mph SW6.1 kmh SW 5.4 mph8.7 kmh 30.10 in1019.3 mb 0.00 in0.0 mm 0.00 in0.0 mm 16.47 in418.3 mm
07:25 PM 42.6°F5.9°C 30.1°F-1.1°C 61% 3.2 mph SW5.1 kmh SW 4.5 mph7.2 kmh 30.10 in1019.3 mb 0.00 in0.0 mm 0.00 in0.0 mm 16.47 in418.3 mm
07:30 PM 42.5°F5.8°C 30.0°F-1.1°C 61% 3.5 mph SSW5.6 kmh SSW 4.5 mph7.2 kmh 30.10 in1019.3 mb 0.00 in0.0 mm 0.00 in0.0 mm 16.47 in418.3 mm
07:35 PM 42.4°F5.8°C 29.9°F-1.2°C 61% 3.5 mph SW5.6 kmh SW 5.4 mph8.7 kmh 30.09 in1019.0 mb 0.00 in0.0 mm 0.00 in0.0 mm 16.47 in418.3 mm
07:40 PM 42.3°F5.7°C 29.8°F-1.2°C 61% 4.5 mph SSW7.2 kmh SSW 6.0 mph9.7 kmh 30.09 in1019.0 mb 0.00 in0.0 mm 0.00 in0.0 mm 16.47 in418.3 mm
07:45 PM 42.3°F5.7°C 29.7°F-1.3°C 61% 4.0 mph SW6.4 kmh SW 6.9 mph11.1 kmh 30.09 in1019.0 mb 0.00 in0.0 mm 0.00 in0.0 mm 16.47 in418.3 mm
07:50 PM 42.3°F5.7°C 29.4°F-1.4°C 60% 3.7 mph SW6.0 kmh SW 6.0 mph9.7 kmh 30.09 in1019.0 mb 0.00 in0.0 mm 0.00 in0.0 mm 16.47 in418.3 mm
07:55 PM 42.3°F5.7°C 29.4°F-1.4°C 60% 3.5 mph SW5.6 kmh SW 6.0 mph9.7 kmh 30.09 in1019.0 mb 0.00 in0.0 mm 0.00 in0.0 mm 16.47 in418.3 mm
08:00 PM 42.2°F5.7°C 29.3°F-1.5°C 60% 3.5 mph SW5.6 kmh SW 6.0 mph9.7 kmh 30.09 in1019.0 mb 0.00 in0.0 mm 0.00 in0.0 mm 16.47 in418.3 mm
08:05 PM 42.1°F5.6°C 29.2°F-1.6°C 60% 3.8 mph SW6.1 kmh SW 4.5 mph7.2 kmh 30.09 in1019.0 mb 0.00 in0.0 mm 0.00 in0.0 mm 16.47 in418.3 mm
08:10 PM 42.1°F5.6°C 29.2°F-1.6°C 60% 3.8 mph SW6.1 kmh SW 5.4 mph8.7 kmh 30.09 in1019.0 mb 0.00 in0.0 mm 0.00 in0.0 mm 16.47 in418.3 mm
08:15 PM 42.1°F5.6°C 29.2°F-1.6°C 60% 2.6 mph S4.2 kmh S 4.5 mph7.2 kmh 30.09 in1019.0 mb 0.00 in0.0 mm 0.00 in0.0 mm 16.47 in418.3 mm
08:20 PM 42.1°F5.6°C 29.2°F-1.6°C 60% 3.4 mph SSW5.5 kmh SSW 6.9 mph11.1 kmh 30.09 in1019.0 mb 0.00 in0.0 mm 0.00 in0.0 mm 16.47 in418.3 mm
08:25 PM 42.1°F5.6°C 29.2°F-1.6°C 60% 4.4 mph SW7.1 kmh SW 6.0 mph9.7 kmh 30.08 in1018.6 mb 0.00 in0.0 mm 0.00 in0.0 mm 16.47 in418.3 mm
08:30 PM 42.0°F5.6°C 29.2°F-1.6°C 60% 4.1 mph SSW6.6 kmh SSW 6.9 mph11.1 kmh 30.08 in1018.6 mb 0.00 in0.0 mm 0.00 in0.0 mm 16.47 in418.3 mm
08:35 PM 42.0°F5.6°C 29.1°F-1.6°C 60% 3.5 mph SW5.6 kmh SW 6.0 mph9.7 kmh 30.09 in1019.0 mb 0.00 in0.0 mm 0.00 in0.0 mm 16.47 in418.3 mm
08:40 PM 42.1°F5.6°C 29.2°F-1.6°C 60% 4.3 mph SW6.9 kmh SW 6.9 mph11.1 kmh 30.09 in1019.0 mb 0.00 in0.0 mm 0.00 in0.0 mm 16.47 in418.3 mm
08:45 PM 42.3°F5.7°C 29.4°F-1.4°C 60% 4.2 mph S6.8 kmh S 6.0 mph9.7 kmh 30.08 in1018.6 mb 0.00 in0.0 mm 0.00 in0.0 mm 16.47 in418.3 mm
08:50 PM 42.4°F5.8°C 29.5°F-1.4°C 60% 5.3 mph SSW8.5 kmh SSW 8.3 mph13.4 kmh 30.08 in1018.6 mb 0.00 in0.0 mm 0.00 in0.0 mm 16.47 in418.3 mm
08:55 PM 42.4°F5.8°C 29.5°F-1.4°C 60% 4.7 mph SW7.6 kmh SW 6.0 mph9.7 kmh 30.08 in1018.6 mb 0.00 in0.0 mm 0.00 in0.0 mm 16.47 in418.3 mm
09:00 PM 42.6°F5.9°C 29.7°F-1.3°C 60% 6.6 mph SSW10.6 kmh SSW 11.4 mph18.3 kmh 30.08 in1018.6 mb 0.00 in0.0 mm 0.00 in0.0 mm 16.47 in418.3 mm
09:05 PM 42.8°F6.0°C 29.9°F-1.2°C 60% 6.1 mph S9.8 kmh S 9.8 mph15.8 kmh 30.08 in1018.6 mb 0.00 in0.0 mm 0.00 in0.0 mm 16.47 in418.3 mm
09:10 PM 43.0°F6.1°C 30.1°F-1.1°C 60% 6.8 mph SW10.9 kmh SW 10.7 mph17.2 kmh 30.08 in1018.6 mb 0.00 in0.0 mm 0.00 in0.0 mm 16.47 in418.3 mm
09:15 PM 43.2°F6.2°C 30.2°F-1.0°C 60% 6.6 mph S10.6 kmh S 9.8 mph15.8 kmh 30.07 in1018.3 mb 0.00 in0.0 mm 0.00 in0.0 mm 16.47 in418.3 mm
09:20 PM 43.3°F6.3°C 30.2°F-1.0°C 60% 8.1 mph S13.0 kmh S 13.0 mph20.9 kmh 30.07 in1018.3 mb 0.00 in0.0 mm 0.00 in0.0 mm 16.47 in418.3 mm
09:25 PM 43.5°F6.4°C 30.2°F-1.0°C 59% 6.8 mph S10.9 kmh S 11.4 mph18.3 kmh 30.07 in1018.3 mb 0.00 in0.0 mm 0.00 in0.0 mm 16.47 in418.3 mm
09:30 PM 43.6°F6.4°C 30.2°F-1.0°C 59% 8.3 mph SSW13.4 kmh SSW 13.6 mph21.9 kmh 30.07 in1018.3 mb 0.00 in0.0 mm 0.00 in0.0 mm 16.47 in418.3 mm
09:35 PM 43.7°F6.5°C 30.3°F-0.9°C 59% 9.5 mph SW15.3 kmh SW 17.4 mph28.0 kmh 30.07 in1018.3 mb 0.00 in0.0 mm 0.00 in0.0 mm 16.47 in418.3 mm
09:40 PM 43.8°F6.6°C 30.4°F-0.9°C 59% 10.1 mph SSW16.3 kmh SSW 17.4 mph28.0 kmh 30.07 in1018.3 mb 0.00 in0.0 mm 0.00 in0.0 mm 16.47 in418.3 mm
09:45 PM 43.9°F6.6°C 30.4°F-0.9°C 59% 8.2 mph SW13.2 kmh SW 12.1 mph19.5 kmh 30.07 in1018.3 mb 0.00 in0.0 mm 0.00 in0.0 mm 16.47 in418.3 mm
09:50 PM 43.9°F6.6°C 30.1°F-1.1°C 58% 8.2 mph SSW13.2 kmh SSW 11.4 mph18.3 kmh 30.07 in1018.3 mb 0.00 in0.0 mm 0.00 in0.0 mm 16.47 in418.3 mm
09:55 PM 43.9°F6.6°C 30.1°F-1.1°C 58% 8.0 mph SW12.9 kmh SW 14.5 mph23.3 kmh 30.07 in1018.3 mb 0.00 in0.0 mm 0.00 in0.0 mm 16.47 in418.3 mm
10:00 PM 43.8°F6.6°C 30.0°F-1.1°C 58% 7.2 mph S11.6 kmh S 13.0 mph20.9 kmh 30.06 in1017.9 mb 0.00 in0.0 mm 0.00 in0.0 mm 16.47 in418.3 mm
10:05 PM 43.7°F6.5°C 29.9°F-1.2°C 58% 7.6 mph SSE12.2 kmh SSE 8.3 mph13.4 kmh 30.06 in1017.9 mb 0.00 in0.0 mm 0.00 in0.0 mm 16.47 in418.3 mm
10:10 PM 43.7°F6.5°C 29.9°F-1.2°C 58% 6.6 mph S10.6 kmh S 8.3 mph13.4 kmh 30.06 in1017.9 mb 0.00 in0.0 mm 0.00 in0.0 mm 16.47 in418.3 mm
10:15 PM 43.5°F6.4°C 29.7°F-1.3°C 58% 7.8 mph S12.6 kmh S 12.1 mph19.5 kmh 30.06 in1017.9 mb 0.00 in0.0 mm 0.00 in0.0 mm 16.47 in418.3 mm
10:20 PM 43.4°F6.3°C 29.6°F-1.3°C 58% 6.1 mph SW9.8 kmh SW 9.2 mph14.8 kmh 30.06 in1017.9 mb 0.00 in0.0 mm 0.00 in0.0 mm 16.47 in418.3 mm
10:25 PM 43.3°F6.3°C 29.6°F-1.3°C 58% 6.2 mph SSW10.0 kmh SSW 9.2 mph14.8 kmh 30.06 in1017.9 mb 0.00 in0.0 mm 0.00 in0.0 mm 16.47 in418.3 mm
10:30 PM 43.3°F6.3°C 29.7°F-1.3°C 58% 7.1 mph SSW11.4 kmh SSW 9.8 mph15.8 kmh 30.06 in1017.9 mb 0.00 in0.0 mm 0.00 in0.0 mm 16.47 in418.3 mm
10:35 PM 43.3°F6.3°C 30.0°F-1.1°C 59% 7.2 mph SSW11.6 kmh SSW 9.8 mph15.8 kmh 30.05 in1017.6 mb 0.00 in0.0 mm 0.00 in0.0 mm 16.47 in418.3 mm
10:40 PM 43.2°F6.2°C 29.9°F-1.2°C 59% 7.2 mph SSW11.6 kmh SSW 14.5 mph23.3 kmh 30.05 in1017.6 mb 0.00 in0.0 mm 0.00 in0.0 mm 16.47 in418.3 mm
10:45 PM 43.2°F6.2°C 29.9°F-1.2°C 59% 7.8 mph SSW12.6 kmh SSW 12.1 mph19.5 kmh 30.05 in1017.6 mb 0.00 in0.0 mm 0.00 in0.0 mm 16.47 in418.3 mm
10:50 PM 43.2°F6.2°C 30.2°F-1.0°C 60% 8.6 mph SW13.8 kmh SW 11.4 mph18.3 kmh 30.06 in1017.9 mb 0.00 in0.0 mm 0.00 in0.0 mm 16.47 in418.3 mm
10:55 PM 43.2°F6.2°C 30.2°F-1.0°C 60% 6.5 mph SW10.5 kmh SW 10.7 mph17.2 kmh 30.05 in1017.6 mb 0.00 in0.0 mm 0.00 in0.0 mm 16.47 in418.3 mm
11:00 PM 43.2°F6.2°C 30.2°F-1.0°C 60% 5.4 mph SSW8.7 kmh SSW 6.9 mph11.1 kmh 30.05 in1017.6 mb 0.00 in0.0 mm 0.00 in0.0 mm 16.47 in418.3 mm
11:05 PM 43.2°F6.2°C 30.2°F-1.0°C 60% 6.2 mph SSW10.0 kmh SSW 7.6 mph12.2 kmh 30.05 in1017.6 mb 0.00 in0.0 mm 0.00 in0.0 mm 16.47 in418.3 mm
11:10 PM 43.2°F6.2°C 30.2°F-1.0°C 60% 5.6 mph S9.0 kmh S 8.3 mph13.4 kmh 30.05 in1017.6 mb 0.00 in0.0 mm 0.00 in0.0 mm 16.47 in418.3 mm
11:15 PM 43.0°F6.1°C 30.1°F-1.1°C 60% 5.6 mph SSW9.0 kmh SSW 9.2 mph14.8 kmh 30.05 in1017.6 mb 0.00 in0.0 mm 0.00 in0.0 mm 16.47 in418.3 mm
11:20 PM 43.0°F6.1°C 30.5°F-0.8°C 61% 7.6 mph S12.2 kmh S 10.7 mph17.2 kmh 30.04 in1017.3 mb 0.00 in0.0 mm 0.00 in0.0 mm 16.47 in418.3 mm
11:25 PM 43.0°F6.1°C 30.5°F-0.8°C 61% 8.0 mph SSW12.9 kmh SSW 12.1 mph19.5 kmh 30.04 in1017.3 mb 0.00 in0.0 mm 0.00 in0.0 mm 16.47 in418.3 mm
11:30 PM 43.0°F6.1°C 30.5°F-0.8°C 61% 7.0 mph SSW11.3 kmh SSW 10.7 mph17.2 kmh 30.04 in1017.3 mb 0.00 in0.0 mm 0.00 in0.0 mm 16.47 in418.3 mm
11:35 PM 43.0°F6.1°C 30.5°F-0.8°C 61% 6.6 mph SSW10.6 kmh SSW 11.4 mph18.3 kmh 30.04 in1017.3 mb 0.00 in0.0 mm 0.00 in0.0 mm 16.47 in418.3 mm
11:40 PM 43.0°F6.1°C 30.5°F-0.8°C 61% 7.5 mph SSW12.1 kmh SSW 13.0 mph20.9 kmh 30.04 in1017.3 mb 0.00 in0.0 mm 0.00 in0.0 mm 16.47 in418.3 mm
11:45 PM 43.0°F6.1°C 30.5°F-0.8°C 61% 7.3 mph SW11.7 kmh SW 11.4 mph18.3 kmh 30.04 in1017.3 mb 0.00 in0.0 mm 0.00 in0.0 mm 16.47 in418.3 mm
11:50 PM 43.2°F6.2°C 30.6°F-0.8°C 61% 6.8 mph SSW10.9 kmh SSW 9.2 mph14.8 kmh 30.03 in1016.9 mb 0.00 in0.0 mm 0.00 in0.0 mm 16.47 in418.3 mm
11:55 PM 43.2°F6.2°C 30.7°F-0.7°C 61% 6.3 mph S10.1 kmh S 8.3 mph13.4 kmh 30.03 in1016.9 mb 0.00 in0.0 mm 0.00 in0.0 mm 16.47 in418.3 mm